createdAt,value
2023-01-28T00:04:45.678Z,2688.00
2023-01-28T00:05:45.922Z,2710.00
2023-01-28T00:06:46.136Z,2746.00
2023-01-28T00:07:46.362Z,2756.00
2023-01-28T00:08:46.591Z,2737.00
2023-01-28T00:09:46.825Z,2652.00
2023-01-28T00:10:47.011Z,2636.00
2023-01-28T00:11:47.269Z,2593.00
2023-01-28T00:12:47.474Z,2520.00
2023-01-28T00:13:47.722Z,2423.00
2023-01-28T00:14:47.955Z,2451.00
2023-01-28T00:15:48.272Z,2531.00
2023-01-28T00:16:48.504Z,2545.00
2023-01-28T00:17:48.721Z,2542.00
2023-01-28T00:18:48.964Z,2448.00
2023-01-28T00:19:49.257Z,2447.00
2023-01-28T00:20:49.460Z,2433.00
2023-01-28T00:21:49.737Z,2509.00
2023-01-28T00:22:52.091Z,2430.00
2023-01-28T00:23:50.072Z,2384.00
2023-01-28T00:24:50.108Z,2334.00
2023-01-28T00:25:50.139Z,2304.00
2023-01-28T00:26:50.143Z,2280.00
2023-01-28T00:27:50.165Z,2255.00
2023-01-28T00:28:50.202Z,2249.00
2023-01-28T00:29:50.230Z,2269.00
2023-01-28T00:30:50.294Z,2302.00
2023-01-28T00:31:50.302Z,2313.00
2023-01-28T00:32:50.315Z,2332.00
2023-01-28T00:33:50.344Z,2363.00
2023-01-28T00:34:50.360Z,2417.00
2023-01-28T00:35:50.390Z,2433.00
2023-01-28T00:36:50.431Z,2438.00
2023-01-28T00:37:50.464Z,2450.00
2023-01-28T00:38:50.498Z,2509.00
2023-01-28T00:39:50.552Z,2615.00
2023-01-28T00:40:50.559Z,2636.00
2023-01-28T00:41:50.607Z,2647.00
2023-01-28T00:42:50.627Z,2642.00
2023-01-28T00:43:50.657Z,2640.00
2023-01-28T00:44:50.686Z,2582.00
2023-01-28T00:45:50.783Z,2539.00
2023-01-28T00:46:50.770Z,2507.00
2023-01-28T00:47:50.804Z,2559.00
2023-01-28T00:48:50.872Z,2601.00
2023-01-28T00:49:50.896Z,2666.00
2023-01-28T00:50:50.929Z,2741.00
2023-01-28T00:51:50.939Z,2767.00
2023-01-28T00:52:51.053Z,2706.00
2023-01-28T00:53:51.015Z,2715.00
2023-01-28T00:54:51.058Z,2814.00
2023-01-28T00:55:51.092Z,2852.00
2023-01-28T00:56:51.113Z,2896.00
2023-01-28T00:57:51.177Z,2953.00
2023-01-28T00:58:51.151Z,2964.00
2023-01-28T00:59:51.177Z,2973.00
2023-01-28T01:00:51.207Z,2932.00
2023-01-28T01:01:51.317Z,2938.00
2023-01-28T01:02:51.363Z,2854.00
2023-01-28T01:03:51.343Z,2797.00
2023-01-28T01:04:51.390Z,2789.00
2023-01-28T01:05:51.414Z,2772.00
2023-01-28T01:06:51.442Z,2795.00
2023-01-28T01:07:51.471Z,2810.00
2023-01-28T01:08:51.487Z,2794.00
2023-01-28T01:09:51.517Z,2742.00
2023-01-28T01:10:51.558Z,2735.00
2023-01-28T01:11:51.585Z,2752.00
2023-01-28T01:12:51.628Z,2792.00
2023-01-28T01:13:51.646Z,2833.00
2023-01-28T01:14:51.675Z,2921.00
2023-01-28T01:15:51.748Z,2985.00
2023-01-28T01:16:51.744Z,3056.00
2023-01-28T01:17:51.778Z,3167.00
2023-01-28T01:18:51.786Z,3174.00
2023-01-28T01:19:51.814Z,3094.00
2023-01-28T01:20:53.069Z,3103.00
2023-01-28T01:21:51.869Z,3273.00
2023-01-28T01:51:55.752Z,3438.00
2023-01-28T01:52:55.979Z,3450.00
2023-01-28T01:53:56.259Z,3497.00
2023-01-28T01:54:56.509Z,3462.00
2023-01-28T01:55:56.722Z,3486.00
2023-01-28T01:56:57.058Z,3420.00
2023-01-28T02:32:05.768Z,3682.00
2023-01-28T02:33:05.987Z,3666.00
2023-01-28T02:34:06.213Z,3624.00
2023-01-28T02:35:06.472Z,3654.00
2023-01-28T02:36:06.692Z,3685.00
2023-01-28T02:37:06.920Z,3629.00
2023-01-28T02:38:07.183Z,3575.00
2023-01-28T02:39:07.403Z,3541.00
2023-01-28T02:40:07.611Z,3484.00
2023-01-28T02:41:07.836Z,3472.00
2023-01-28T02:42:08.152Z,3456.00
2023-01-28T02:43:08.369Z,3411.00
2023-01-28T02:44:08.647Z,3424.00
2023-01-28T02:45:08.851Z,3440.00
2023-01-28T02:46:09.181Z,3368.00
2023-01-28T02:47:09.347Z,3108.00
2023-01-28T02:48:09.600Z,2939.00
2023-01-28T02:49:09.882Z,2692.00
2023-01-28T02:50:10.129Z,2627.00
2023-01-28T02:51:10.324Z,2687.00
2023-01-28T02:53:10.867Z,2780.00
2023-01-28T02:54:11.086Z,2817.00
2023-01-28T02:55:11.326Z,2708.00
2023-01-28T02:56:11.528Z,2561.00
2023-01-28T02:57:11.758Z,2498.00
2023-01-28T03:14:15.661Z,1812.00
2023-01-28T03:15:16.206Z,1737.00
2023-01-28T03:16:15.921Z,1968.00
2023-01-28T03:17:15.916Z,2004.00
2023-01-28T03:18:15.934Z,1985.00
2023-01-28T03:19:15.975Z,2067.00
2023-01-28T03:20:16.020Z,2091.00
2023-01-28T03:21:16.060Z,2040.00
2023-01-28T03:22:16.088Z,1974.00
2023-01-28T03:23:16.104Z,1995.00
2023-01-28T03:24:16.174Z,1948.00
2023-01-28T03:25:16.511Z,1909.00
2023-01-28T03:26:16.239Z,1900.00
2023-01-28T03:27:16.337Z,1896.00
2023-01-28T03:28:16.400Z,1924.00
2023-01-28T03:29:16.465Z,2001.00
2023-01-28T03:30:16.542Z,2066.00
2023-01-28T03:31:16.596Z,2122.00
2023-01-28T03:32:16.704Z,2119.00
2023-01-28T03:33:16.741Z,2201.00
2023-01-28T03:34:16.885Z,2258.00
2023-01-28T03:35:17.223Z,2326.00
2023-01-28T03:36:16.976Z,2387.00
2023-01-28T03:37:17.051Z,2454.00
2023-01-28T03:38:17.140Z,2465.00
2023-01-28T03:39:17.225Z,2483.00
2023-01-28T03:40:17.296Z,2531.00
2023-01-28T03:41:17.390Z,2550.00
2023-01-28T03:42:17.488Z,2578.00
2023-01-28T03:43:17.559Z,2614.00
2023-01-28T03:44:17.633Z,2657.00
2023-01-28T03:45:17.912Z,2651.00
2023-01-28T03:46:17.827Z,2661.00
2023-01-28T03:47:17.887Z,2704.00
2023-01-28T03:48:17.984Z,2725.00
2023-01-28T03:49:18.093Z,2711.00
2023-01-28T03:50:18.141Z,2715.00
2023-01-28T03:51:18.233Z,2701.00
2023-01-28T03:52:18.319Z,2720.00
2023-01-28T03:53:18.345Z,2744.00
2023-01-28T03:54:18.352Z,2725.00
2023-01-28T03:55:18.384Z,2706.00
2023-01-28T03:56:18.459Z,2666.00
2023-01-28T03:57:18.439Z,2616.00
2023-01-28T03:58:18.448Z,2601.00
2023-01-28T03:59:18.472Z,2571.00
2023-01-28T04:00:18.515Z,2574.00
2023-01-28T04:01:18.573Z,2573.00
2023-01-28T04:02:18.547Z,2576.00
2023-01-28T04:03:18.595Z,2557.00
2023-01-28T04:04:18.593Z,2567.00
2023-01-28T04:05:18.622Z,2546.00
2023-01-28T04:06:18.652Z,2484.00
2023-01-28T04:07:18.693Z,2462.00
2023-01-28T04:08:18.711Z,2532.00
2023-01-28T04:09:18.733Z,2576.00
2023-01-28T04:10:18.749Z,2543.00
2023-01-28T04:11:18.804Z,2534.00
2023-01-28T04:12:18.864Z,2537.00
2023-01-28T04:13:18.899Z,2515.00
2023-01-28T04:14:18.962Z,2515.00
2023-01-28T04:15:19.037Z,2528.00
2023-01-28T04:16:19.154Z,2543.00
2023-01-28T04:17:19.163Z,2555.00
2023-01-28T04:18:19.244Z,2574.00
2023-01-28T04:19:19.306Z,2663.00
2023-01-28T04:20:19.393Z,2709.00
2023-01-28T04:21:19.498Z,2689.00
2023-01-28T04:22:19.541Z,2609.00
2023-01-28T04:23:19.640Z,2589.00
2023-01-28T04:24:19.767Z,2604.00
2023-01-28T04:25:19.777Z,2640.00
2023-01-28T04:26:19.827Z,2651.00
2023-01-28T04:27:19.863Z,2672.00
2023-01-28T04:28:19.893Z,2637.00
2023-01-28T04:29:19.909Z,2604.00
2023-01-28T04:30:19.947Z,2606.00
2023-01-28T04:31:19.992Z,2604.00
2023-01-28T04:32:19.991Z,2645.00
2023-01-28T04:33:20.031Z,2614.00
2023-01-28T04:34:20.025Z,2608.00
2023-01-28T04:35:20.064Z,2588.00
2023-01-28T04:36:20.097Z,2619.00
2023-01-28T04:37:20.129Z,2647.00
2023-01-28T04:38:20.139Z,2670.00
2023-01-28T04:39:20.166Z,2677.00
2023-01-28T04:40:20.178Z,2642.00
2023-01-28T04:41:20.190Z,2620.00
2023-01-28T04:42:20.222Z,2635.00
2023-01-28T04:43:20.237Z,2615.00
2023-01-28T04:44:20.260Z,2601.00
2023-01-28T04:45:20.289Z,2573.00
2023-01-28T04:46:20.359Z,2601.00
2023-01-28T04:47:20.340Z,2573.00
2023-01-28T04:48:20.368Z,2577.00
2023-01-28T04:49:20.395Z,2622.00
2023-01-28T04:50:20.471Z,2630.00
2023-01-28T04:51:20.633Z,2641.00
2023-01-28T04:52:20.614Z,2639.00
2023-01-28T04:53:20.700Z,2623.00
2023-01-28T04:54:20.782Z,2646.00
2023-01-28T04:55:20.866Z,2641.00
2023-01-28T04:56:20.881Z,2623.00
2023-01-28T04:57:20.926Z,2649.00
2023-01-28T04:58:20.996Z,2645.00
2023-01-28T04:59:21.087Z,2624.00
2023-01-28T05:00:21.145Z,2592.00
2023-01-28T05:01:21.233Z,2542.00
2023-01-28T05:02:21.328Z,2552.00
2023-01-28T05:03:21.380Z,2584.00
2023-01-28T05:04:21.450Z,2608.00
2023-01-28T05:05:21.528Z,2552.00
2023-01-28T05:06:21.595Z,2549.00
2023-01-28T05:07:21.684Z,2494.00
2023-01-28T05:08:21.765Z,2514.00
2023-01-28T05:09:21.824Z,2580.00
2023-01-28T05:10:21.907Z,2570.00
2023-01-28T05:11:21.978Z,2508.00
2023-01-28T05:12:22.063Z,2500.00
2023-01-28T05:13:22.962Z,2529.00
2023-01-28T05:14:22.189Z,2525.00
2023-01-28T05:15:22.275Z,2516.00
2023-01-28T05:16:22.344Z,2543.00
2023-01-28T05:17:22.440Z,2568.00
2023-01-28T05:18:22.492Z,2562.00
2023-01-28T05:19:22.580Z,2581.00
2023-01-28T05:20:22.658Z,2625.00
2023-01-28T05:21:22.733Z,2661.00
2023-01-28T05:22:22.803Z,2645.00
2023-01-28T05:23:22.892Z,2633.00
2023-01-28T05:24:23.012Z,2629.00
2023-01-28T05:25:23.055Z,2650.00
2023-01-28T05:26:23.112Z,2734.00
2023-01-28T05:27:23.201Z,2769.00
2023-01-28T05:28:23.276Z,2804.00
2023-01-28T05:29:23.337Z,2854.00
2023-01-28T05:30:23.415Z,2866.00
2023-01-28T05:31:23.481Z,2873.00
2023-01-28T05:32:23.578Z,2864.00
2023-01-28T05:33:23.629Z,2875.00
2023-01-28T05:34:23.672Z,2870.00
2023-01-28T05:35:23.745Z,2889.00
2023-01-28T05:36:23.820Z,2917.00
2023-01-28T05:37:23.900Z,2885.00
2023-01-28T05:38:23.954Z,2903.00
2023-01-28T05:39:24.037Z,2910.00
2023-01-28T05:40:24.102Z,2888.00
2023-01-28T05:41:24.204Z,2905.00
2023-01-28T05:42:24.286Z,2934.00
2023-01-28T05:43:24.366Z,2969.00
2023-01-28T05:44:24.437Z,2972.00
2023-01-28T05:45:24.590Z,2929.00
2023-01-28T05:46:24.600Z,2862.00
2023-01-28T05:47:24.677Z,2852.00
2023-01-28T05:48:24.766Z,2838.00
2023-01-28T05:49:24.808Z,2871.00
2023-01-28T06:07:25.558Z,2962.00
2023-01-28T06:08:25.582Z,2949.00
2023-01-28T06:09:25.640Z,2955.00
2023-01-28T06:10:25.692Z,2912.00
2023-01-28T06:11:25.875Z,2911.00
2023-01-28T06:12:25.845Z,2952.00
2023-01-28T06:13:25.918Z,2870.00
2023-01-28T06:14:25.963Z,2827.00
2023-01-28T06:15:26.097Z,2760.00
2023-01-28T06:16:26.081Z,2778.00
2023-01-28T06:17:26.136Z,2759.00
2023-01-28T06:18:26.189Z,2705.00
2023-01-28T06:19:26.222Z,2660.00
2023-01-28T06:21:28.391Z,2563.00
2023-01-28T06:22:26.292Z,2503.00
2023-01-28T06:23:26.317Z,2379.00
2023-01-28T06:24:26.368Z,2412.00
2023-01-28T06:25:26.335Z,2368.00
2023-01-28T06:26:26.346Z,2335.00
2023-01-28T06:27:26.358Z,2298.00
2023-01-28T06:29:26.386Z,2290.00
2023-01-28T06:30:26.386Z,2309.00
2023-01-28T06:31:26.407Z,2259.00
2023-01-28T06:32:26.455Z,2220.00
2023-01-28T06:33:26.388Z,2228.00
2023-01-28T06:34:26.401Z,2325.00
2023-01-28T06:35:26.409Z,2332.00
2023-01-28T06:36:26.433Z,2275.00
2023-01-28T06:37:26.427Z,2251.00
2023-01-28T06:38:26.454Z,2271.00
2023-01-28T06:39:26.458Z,2310.00
2023-01-28T06:40:26.466Z,2317.00
2023-01-28T06:41:26.491Z,2315.00
2023-01-28T06:42:26.503Z,2328.00
2023-01-28T06:43:26.512Z,2368.00
2023-01-28T06:44:26.539Z,2352.00
2023-01-28T06:45:26.533Z,2422.00
2023-01-28T06:46:26.602Z,2350.00
2023-01-28T06:47:26.552Z,2369.00
2023-01-28T06:48:26.561Z,2352.00
2023-01-28T06:49:26.576Z,2286.00
2023-01-28T06:50:26.583Z,2264.00
2023-01-28T06:51:26.595Z,2239.00
2023-01-28T06:52:26.602Z,2242.00
2023-01-28T06:53:26.611Z,2257.00
2023-01-28T06:54:26.603Z,2292.00
2023-01-28T06:55:26.622Z,2359.00
2023-01-28T06:56:26.647Z,2397.00
2023-01-28T06:57:26.637Z,2426.00
2023-01-28T06:58:26.652Z,2392.00
2023-01-28T06:59:26.652Z,2323.00
2023-01-28T07:00:26.659Z,2275.00
2023-01-28T07:01:26.772Z,2283.00
2023-01-28T07:02:27.809Z,2244.00
2023-01-28T07:03:26.680Z,2213.00
2023-01-28T07:04:26.699Z,2216.00
2023-01-28T07:06:26.703Z,2226.00
2023-01-28T08:17:31.479Z,2615.00
2023-01-28T08:18:31.541Z,2607.00
2023-01-28T08:19:31.620Z,2518.00
2023-01-28T08:20:31.701Z,2470.00
2023-01-28T08:21:31.769Z,2499.00
2023-01-28T08:22:31.831Z,2448.00
2023-01-28T08:23:31.896Z,2502.00
2023-01-28T08:24:31.976Z,2573.00
2023-01-28T08:25:32.039Z,2595.00
2023-01-28T08:26:32.100Z,2620.00
2023-01-28T08:27:32.173Z,2638.00
2023-01-28T08:28:32.270Z,2626.00
2023-01-28T08:29:32.288Z,2558.00
2023-01-28T08:30:32.363Z,2477.00
2023-01-28T08:31:32.492Z,2447.00
2023-01-28T08:32:32.490Z,2452.00
2023-01-28T08:33:32.587Z,2405.00
2023-01-28T08:34:32.624Z,2428.00
2023-01-28T08:35:32.701Z,2432.00
2023-01-28T08:36:32.793Z,2445.00
2023-01-28T08:37:32.855Z,2441.00
2023-01-28T08:38:32.889Z,2327.00
2023-01-28T08:39:32.935Z,2294.00
2023-01-28T08:40:32.959Z,2270.00
2023-01-28T08:41:33.026Z,2273.00
2023-01-28T08:42:33.064Z,2294.00
2023-01-28T08:43:33.144Z,2195.00
2023-01-28T09:22:35.581Z,2074.00
2023-01-28T09:23:35.624Z,2103.00
2023-01-28T09:24:37.918Z,2076.00
2023-01-28T09:25:35.687Z,2101.00
2023-01-28T09:26:35.699Z,2171.00
2023-01-28T09:27:35.695Z,2227.00
2023-01-28T09:28:35.702Z,2216.00
2023-01-28T09:29:35.703Z,2271.00
2023-01-28T09:30:37.439Z,2199.00
2023-01-28T09:31:35.719Z,2054.00
2023-01-28T09:32:35.714Z,1894.00
2023-01-28T09:33:35.720Z,1905.00
2023-01-28T09:34:35.732Z,1865.00
2023-01-28T09:54:36.378Z,1476.00
2023-01-28T09:55:36.379Z,1548.00
2023-01-28T09:56:36.412Z,1617.00
2023-01-28T09:57:36.394Z,1630.00
2023-01-28T09:58:36.390Z,1592.00
2023-01-28T09:59:36.392Z,1558.00
2023-01-28T10:00:36.441Z,1549.00
2023-01-28T10:01:36.396Z,1565.00
2023-01-28T10:02:36.405Z,1392.00
2023-01-28T10:03:36.491Z,1324.00
2023-01-28T10:04:36.461Z,1347.00
2023-01-28T10:05:39.157Z,1504.00
2023-01-28T10:06:36.552Z,1505.00
2023-01-28T10:07:36.554Z,1522.00
2023-01-28T10:08:36.554Z,1550.00
2023-01-28T10:09:36.567Z,1635.00
2023-01-28T10:10:36.559Z,1760.00
2023-01-28T10:11:36.560Z,1730.00
2023-01-28T10:12:36.562Z,1640.00
2023-01-28T10:13:36.583Z,1296.00
2023-01-28T10:14:36.598Z,1252.00
2023-01-28T10:15:36.622Z,1300.00
2023-01-28T10:16:36.661Z,1369.00
2023-01-28T10:17:36.732Z,1306.00
2023-01-28T10:18:36.672Z,1279.00
2023-01-28T10:19:36.685Z,1260.00
2023-01-28T10:20:36.700Z,1145.00
2023-01-28T10:21:36.709Z,1156.00
2023-01-28T10:22:36.728Z,1242.00
2023-01-28T10:23:36.737Z,1204.00
2023-01-28T10:24:36.807Z,1192.00
2023-01-28T10:25:36.763Z,1202.00
2023-01-28T10:26:36.772Z,1241.00
2023-01-28T10:27:36.785Z,1352.00
2023-01-28T10:28:36.780Z,1214.00
2023-01-28T10:29:36.828Z,1219.00
2023-01-28T10:30:36.816Z,1115.00
2023-01-28T10:31:36.835Z,1064.00
2023-01-28T10:32:36.827Z,1085.00
2023-01-28T10:33:36.845Z,1035.00
2023-01-28T10:34:36.858Z,1055.00
2023-01-28T10:35:36.875Z,1049.00
2023-01-28T10:36:36.905Z,1038.00
2023-01-28T10:37:36.977Z,1056.00
2023-01-28T10:38:37.044Z,952.00
2023-01-28T10:39:37.078Z,940.00
2023-01-28T10:40:37.122Z,944.00
2023-01-28T10:41:45.377Z,962.00
2023-01-28T10:42:38.183Z,963.00
2023-01-28T10:43:37.198Z,940.00
2023-01-28T10:44:37.220Z,895.00
2023-01-28T10:45:37.290Z,1042.00
2023-01-28T10:46:37.242Z,1120.00
2023-01-28T10:47:37.259Z,1031.00
2023-01-28T10:48:37.259Z,1145.00
2023-01-28T10:49:37.260Z,1143.00
2023-01-28T10:50:37.271Z,1165.00
2023-01-28T10:51:37.279Z,1156.00
2023-01-28T10:52:37.325Z,1059.00
2023-01-28T10:53:37.323Z,939.00
2023-01-28T10:54:37.304Z,932.00
2023-01-28T10:55:37.321Z,983.00
2023-01-28T10:56:37.329Z,1093.00
2023-01-28T10:57:37.353Z,1082.00
2023-01-28T10:58:37.362Z,1116.00
2023-01-28T10:59:37.382Z,1188.00
2023-01-28T11:00:37.407Z,1192.00
2023-01-28T11:01:37.429Z,1236.00
2023-01-28T11:02:37.585Z,1259.00
2023-01-28T11:03:37.492Z,1246.00
2023-01-28T11:04:37.507Z,1285.00
2023-01-28T11:05:37.524Z,1126.00
2023-01-28T11:06:37.536Z,1091.00
2023-01-28T11:07:37.561Z,1073.00
2023-01-28T11:08:37.573Z,1093.00
2023-01-28T11:09:37.592Z,895.00
2023-01-28T11:10:37.625Z,754.00
2023-01-28T11:11:37.613Z,686.00
2023-01-28T11:12:37.651Z,806.00
2023-01-28T11:13:37.656Z,802.00
2023-01-28T11:14:37.693Z,804.00
2023-01-28T11:15:37.713Z,839.00
2023-01-28T11:16:37.717Z,818.00
2023-01-28T11:17:37.749Z,798.00
2023-01-28T11:18:37.721Z,713.00
2023-01-28T11:19:37.733Z,653.00
2023-01-28T11:20:37.752Z,788.00
2023-01-28T11:21:37.733Z,1005.00
2023-01-28T11:22:37.746Z,1006.00
2023-01-28T11:23:37.730Z,1076.00
2023-01-28T11:24:37.734Z,1241.00
2023-01-28T11:25:37.753Z,1286.00
2023-01-28T11:26:37.767Z,1256.00
2023-01-28T11:27:37.788Z,1246.00
2023-01-28T11:28:37.764Z,1194.00
2023-01-28T11:29:37.754Z,1245.00
2023-01-28T11:30:37.861Z,1171.00
2023-01-28T11:31:37.801Z,1193.00
2023-01-28T11:32:37.818Z,1167.00
2023-01-28T11:33:37.844Z,1169.00
2023-01-28T11:34:37.915Z,1067.00
2023-01-28T11:35:38.058Z,1032.00
2023-01-28T11:36:38.075Z,1026.00
2023-01-28T11:37:38.152Z,899.00
2023-01-28T11:38:38.196Z,916.00
2023-01-28T11:39:38.262Z,952.00
2023-01-28T11:40:38.303Z,922.00
2023-01-28T11:41:38.343Z,886.00
2023-01-28T11:42:38.427Z,1023.00
2023-01-28T11:43:38.477Z,1025.00
2023-01-28T11:44:38.568Z,925.00
2023-01-28T11:45:38.697Z,914.00
2023-01-28T11:46:38.658Z,954.00
2023-01-28T11:47:38.692Z,1005.00
2023-01-28T11:48:38.716Z,1039.00
2023-01-28T11:49:38.724Z,975.00
2023-01-28T11:50:38.734Z,1017.00
2023-01-28T11:51:38.733Z,964.00
2023-01-28T11:53:05.896Z,895.00
2023-01-28T11:53:39.724Z,841.00
2023-01-28T11:54:38.706Z,898.00
2023-01-28T11:55:38.713Z,944.00
2023-01-28T11:56:38.684Z,986.00
2023-01-28T11:57:38.662Z,924.00
2023-01-28T11:58:38.663Z,1004.00
2023-01-28T11:59:38.644Z,1067.00
2023-01-28T12:00:38.643Z,1043.00
2023-01-28T12:01:38.628Z,1053.00
2023-01-28T12:02:38.605Z,1121.00
2023-01-28T12:03:38.593Z,1122.00
2023-01-28T12:04:38.584Z,1103.00
2023-01-28T12:05:38.540Z,1157.00
2023-01-28T12:06:38.519Z,1161.00
2023-01-28T12:07:38.494Z,1127.00
2023-01-28T12:08:38.491Z,1159.00
2023-01-28T12:09:38.451Z,926.00
2023-01-28T12:10:38.444Z,854.00
2023-01-28T12:11:38.440Z,868.00
2023-01-28T12:12:38.415Z,835.00
2023-01-28T12:13:39.395Z,826.00
2023-01-28T12:14:38.376Z,838.00
2023-01-28T12:15:38.381Z,861.00
2023-01-28T12:16:38.343Z,873.00
2023-01-28T12:17:38.319Z,902.00
2023-01-28T12:18:38.279Z,822.00
2023-01-28T12:19:38.257Z,672.00
2023-01-28T12:20:38.227Z,668.00
2023-01-28T12:21:38.205Z,704.00
2023-01-28T12:22:38.177Z,893.00
2023-01-28T12:23:38.166Z,874.00
2023-01-28T12:24:38.146Z,976.00
2023-01-28T12:25:38.121Z,1169.00
2023-01-28T12:26:38.098Z,1204.00
2023-01-28T12:27:38.069Z,1241.00
2023-01-28T12:28:38.041Z,1191.00
2023-01-28T12:29:38.049Z,1187.00
2023-01-28T12:30:38.060Z,1065.00
2023-01-28T12:31:38.358Z,1075.00
2023-01-28T12:32:38.438Z,1164.00
2023-01-28T12:33:38.707Z,1166.00
2023-01-28T12:34:38.916Z,1103.00
2023-01-28T12:35:39.153Z,961.00
2023-01-28T12:36:39.326Z,881.00
2023-01-28T12:37:39.584Z,875.00
2023-01-28T12:38:39.737Z,1001.00
2023-01-28T12:39:39.920Z,1226.00
2023-01-28T12:40:40.154Z,1402.00
2023-01-28T12:41:40.324Z,1539.00
2023-01-28T12:42:40.578Z,1496.00
2023-01-28T12:43:40.759Z,1486.00
2023-01-28T12:44:40.956Z,1475.00
2023-01-28T12:45:41.248Z,1506.00
2023-01-28T12:46:41.403Z,1481.00
2023-01-28T12:47:41.603Z,1495.00
2023-01-28T13:07:45.551Z,1472.00
2023-01-28T13:08:45.752Z,1451.00
2023-01-28T13:09:45.889Z,1338.00
2023-01-28T13:10:46.124Z,1327.00
2023-01-28T13:11:46.362Z,1300.00
2023-01-28T13:54:55.607Z,1270.00
2023-01-28T13:55:55.795Z,1205.00
2023-01-28T13:56:55.998Z,1294.00
2023-01-28T13:57:56.240Z,1226.00
2023-01-28T13:58:56.462Z,1288.00
2023-01-28T13:59:56.693Z,1364.00
2023-01-28T14:00:56.833Z,1218.00
2023-01-28T14:01:57.034Z,1224.00
2023-01-28T14:02:57.240Z,1282.00
2023-01-28T14:03:57.453Z,1243.00
2023-01-28T14:04:57.643Z,1329.00
2023-01-28T14:05:57.837Z,1417.00
2023-01-28T14:06:58.001Z,1539.00
2023-01-28T14:07:58.196Z,1534.00
2023-01-28T14:08:58.485Z,1520.00
2023-01-28T14:09:58.695Z,1552.00
2023-01-28T14:10:58.888Z,1463.00
2023-01-28T14:11:59.190Z,1544.00
2023-01-28T14:12:59.394Z,1530.00
2023-01-28T14:13:59.626Z,1414.00
2023-01-28T14:14:59.827Z,1389.00
2023-01-28T14:16:00.910Z,1390.00
2023-01-28T14:16:59.832Z,1395.00
2023-01-28T14:17:59.732Z,1396.00
2023-01-28T14:18:59.707Z,1377.00
2023-01-28T14:19:59.694Z,1418.00
2023-01-28T14:20:59.716Z,1367.00
2023-01-28T14:21:59.638Z,1467.00
2023-01-28T14:22:59.605Z,1483.00
2023-01-28T14:23:59.585Z,1479.00
2023-01-28T14:24:59.542Z,1316.00
2023-01-28T14:25:59.534Z,1303.00
2023-01-28T14:26:59.480Z,1258.00
2023-01-28T14:27:59.464Z,1297.00
2023-01-28T14:28:59.429Z,1422.00
2023-01-28T14:29:59.394Z,1375.00
2023-01-28T14:30:59.417Z,1411.00
2023-01-28T14:31:59.403Z,1660.00
2023-01-28T14:32:59.381Z,1603.00
2023-01-28T14:33:59.303Z,1491.00
2023-01-28T14:34:59.266Z,1517.00
2023-01-28T14:35:59.245Z,1547.00
2023-01-28T14:36:59.218Z,1487.00
2023-01-28T14:37:59.200Z,1429.00
2023-01-28T14:38:59.205Z,1391.00
2023-01-28T14:39:59.201Z,1457.00
2023-01-28T14:40:59.187Z,1478.00
2023-01-28T14:41:59.188Z,1578.00
2023-01-28T14:42:59.166Z,1667.00
2023-01-28T14:43:59.145Z,1604.00
2023-01-28T14:44:59.173Z,1577.00
2023-01-28T14:45:59.244Z,1631.00
2023-01-28T14:46:59.466Z,1693.00
2023-01-28T14:47:59.663Z,1703.00
2023-01-28T14:48:59.841Z,1740.00
2023-01-28T14:50:00.059Z,1653.00
2023-01-28T14:51:00.239Z,1733.00
2023-01-28T14:52:00.421Z,1787.00
2023-01-28T14:53:00.614Z,1791.00
2023-01-28T14:54:00.808Z,1789.00
2023-01-28T14:55:00.993Z,1749.00
2023-01-28T14:56:01.252Z,1857.00
2023-01-28T14:57:01.479Z,2008.00
2023-01-28T14:58:01.689Z,1935.00
2023-01-28T15:17:05.666Z,1930.00
2023-01-28T15:18:05.824Z,1967.00
2023-01-28T15:19:05.974Z,2046.00
2023-01-28T15:20:06.265Z,2030.00
2023-01-28T15:21:06.422Z,1981.00
2023-01-28T15:22:06.599Z,1932.00
2023-01-28T15:23:06.788Z,1901.00
2023-01-28T16:34:15.616Z,1936.00
2023-01-28T16:35:16.172Z,1939.00
2023-01-28T16:36:15.798Z,1914.00
2023-01-28T16:37:15.786Z,1893.00
2023-01-28T16:38:15.755Z,1934.00
2023-01-28T16:39:15.723Z,1902.00
2023-01-28T16:40:16.117Z,1917.00
2023-01-28T16:41:15.718Z,1888.00
2023-01-28T16:42:15.696Z,1971.00
2023-01-28T16:43:15.679Z,2010.00
2023-01-28T16:49:15.595Z,1937.00
2023-01-28T16:50:15.576Z,2081.00
2023-01-28T16:51:15.563Z,2195.00
2023-01-28T16:52:15.558Z,2201.00
2023-01-28T16:53:15.544Z,2227.00
2023-01-28T17:11:15.743Z,2262.00
2023-01-28T17:58:25.695Z,1996.00
2023-01-28T17:59:26.015Z,2000.00
2023-01-28T18:16:26.820Z,1941.00
2023-01-28T18:17:26.833Z,1952.00
2023-01-28T18:18:26.742Z,1933.00
2023-01-28T18:19:26.726Z,1870.00
2023-01-28T18:20:26.707Z,1825.00
2023-01-28T18:21:26.682Z,1873.00
2023-01-28T18:22:26.655Z,1967.00
2023-01-28T18:23:26.626Z,2054.00
2023-01-28T18:24:26.629Z,2108.00
2023-01-28T18:25:26.577Z,2132.00
2023-01-28T18:26:26.545Z,2119.00
2023-01-28T18:27:26.507Z,2057.00
2023-01-28T18:28:26.470Z,2006.00
2023-01-28T18:29:26.448Z,1991.00
2023-01-28T18:30:26.414Z,1925.00
2023-01-28T18:31:26.421Z,1893.00
2023-01-28T18:32:26.369Z,1898.00
2023-01-28T18:33:26.361Z,1975.00
2023-01-28T18:34:26.337Z,1910.00
2023-01-28T18:35:26.306Z,1917.00
2023-01-28T18:36:26.288Z,1885.00
2023-01-28T18:37:26.310Z,1871.00
2023-01-28T18:47:26.518Z,1859.00
2023-01-28T18:48:27.540Z,1867.00
2023-01-28T18:49:26.681Z,1777.00
2023-01-28T18:50:26.673Z,1867.00
2023-01-28T18:51:30.486Z,1791.00
2023-01-28T18:52:26.605Z,1755.00
2023-01-28T18:53:26.580Z,1783.00
2023-01-28T18:54:26.558Z,1738.00
2023-01-28T18:55:26.523Z,1724.00
2023-01-28T18:56:26.493Z,1676.00
2023-01-28T18:57:26.453Z,1653.00
2023-01-28T18:58:26.433Z,1735.00
2023-01-28T18:59:26.385Z,1808.00
2023-01-28T19:00:26.371Z,1781.00
2023-01-28T19:01:26.387Z,1749.00
2023-01-28T19:02:26.391Z,1731.00
2023-01-28T19:03:26.271Z,1772.00
2023-01-28T19:04:26.245Z,1774.00
2023-01-28T19:05:26.221Z,1764.00
2023-01-28T19:06:26.180Z,1754.00
2023-01-28T19:07:26.143Z,1746.00
2023-01-28T19:08:26.109Z,1693.00
2023-01-28T19:09:26.064Z,1689.00
2023-01-28T19:10:26.049Z,1668.00
2023-01-28T19:11:26.013Z,1625.00
2023-01-28T19:12:25.992Z,1571.00
2023-01-28T19:13:25.960Z,1608.00
2023-01-28T19:14:25.928Z,1662.00
2023-01-28T19:15:25.914Z,1586.00
2023-01-28T19:16:25.906Z,1588.00
2023-01-28T19:17:25.849Z,1513.00
2023-01-28T19:18:25.825Z,1485.00
2023-01-28T19:19:25.808Z,1557.00
2023-01-28T19:20:25.772Z,1631.00
2023-01-28T19:21:25.745Z,1751.00
2023-01-28T19:22:25.719Z,1822.00
2023-01-28T19:23:25.676Z,1828.00
2023-01-28T19:24:25.687Z,1791.00
2023-01-28T19:25:25.629Z,1743.00
2023-01-28T19:26:25.602Z,1678.00
2023-01-28T19:27:25.566Z,1707.00
2023-01-28T19:58:25.656Z,1635.00
2023-01-28T20:02:26.558Z,1482.00
2023-01-28T20:03:26.754Z,1521.00
2023-01-28T20:04:26.951Z,1593.00
2023-01-28T20:05:27.167Z,1583.00
2023-01-28T20:06:27.405Z,1593.00
2023-01-28T20:07:27.609Z,1568.00
2023-01-28T20:08:27.833Z,1606.00
2023-01-28T20:09:28.047Z,1503.00
2023-01-28T20:10:28.334Z,1491.00
2023-01-28T20:11:28.627Z,1485.00
2023-01-28T20:12:28.809Z,1452.00
2023-01-28T20:13:28.992Z,1431.00
2023-01-28T20:14:29.257Z,1406.00
2023-01-28T20:15:29.532Z,1416.00
2023-01-28T20:16:29.730Z,1459.00
2023-01-28T20:17:30.084Z,1484.00
2023-01-28T20:18:30.230Z,1458.00
2023-01-28T20:19:30.437Z,1535.00
2023-01-28T20:20:30.640Z,1576.00
2023-01-28T20:21:30.856Z,1589.00
2023-01-28T20:22:31.085Z,1613.00
2023-01-28T20:23:31.302Z,1582.00
2023-01-28T20:24:31.620Z,1555.00
2023-01-28T20:25:31.783Z,1600.00
2023-01-28T20:26:31.966Z,1701.00
2023-01-28T20:27:32.174Z,1564.00
2023-01-28T20:28:32.368Z,1552.00
2023-01-28T20:29:32.570Z,1542.00
2023-01-28T20:30:32.804Z,1496.00
2023-01-28T20:31:33.147Z,1501.00
2023-01-28T20:32:33.246Z,1518.00
2023-01-28T20:33:33.457Z,1494.00
2023-01-28T20:34:33.657Z,1485.00
2023-01-28T20:35:33.843Z,1448.00